sensor_id;sensor_type;location;lat;lon;timestamp;pressure;altitude;pressure_sealevel;temperature;humidity
26978;BME280;56314;48.088;11.642;2022-11-20T09:04:52;94946.22;;;10.31;49.65
26978;BME280;56314;48.088;11.642;2022-11-20T09:07:19;94966.63;;;9.18;51.36
26978;BME280;56314;48.088;11.642;2022-11-20T09:09:44;94967.75;;;8.46;53.84
26978;BME280;56314;48.088;11.642;2022-11-20T09:12:10;94973.00;;;8.10;56.12
26978;BME280;56314;48.088;11.642;2022-11-20T09:14:35;94971.75;;;7.67;56.86
26978;BME280;56314;48.088;11.642;2022-11-20T09:17:00;94963.94;;;7.30;58.61
26978;BME280;56314;48.088;11.642;2022-11-20T09:19:25;94965.59;;;7.31;59.32
26978;BME280;56314;48.088;11.642;2022-11-20T09:21:51;94961.66;;;7.26;58.59
26978;BME280;56314;48.088;11.642;2022-11-20T09:24:17;94962.91;;;7.20;60.26
26978;BME280;56314;48.088;11.642;2022-11-20T09:26:43;94963.44;;;7.25;59.09
26978;BME280;56314;48.088;11.642;2022-11-20T09:29:08;94959.09;;;7.13;59.07
26978;BME280;56314;48.088;11.642;2022-11-20T09:31:34;94958.16;;;7.14;59.41
26978;BME280;56314;48.088;11.642;2022-11-20T09:33:59;94962.03;;;7.08;59.75
26978;BME280;56314;48.088;11.642;2022-11-20T09:36:24;94956.88;;;7.19;60.15
26978;BME280;56314;48.088;11.642;2022-11-20T09:38:50;94960.09;;;7.23;59.15
26978;BME280;56314;48.088;11.642;2022-11-20T09:41:29;94952.47;;;7.20;59.81
26978;BME280;56314;48.088;11.642;2022-11-20T09:46:53;94945.88;;;7.27;59.44
26978;BME280;56314;48.088;11.642;2022-11-20T09:52:32;94946.50;;;7.31;58.18
26978;BME280;56314;48.088;11.642;2022-11-20T09:55:01;94952.53;;;7.31;58.29
26978;BME280;56314;48.088;11.642;2022-11-20T09:57:35;94947.50;;;7.41;58.43
26978;BME280;56314;48.088;11.642;2022-11-20T10:00:04;94938.19;;;7.50;58.02
26978;BME280;56314;48.088;11.642;2022-11-20T10:02:37;94936.44;;;7.62;57.98
26978;BME280;56314;48.088;11.642;2022-11-20T10:05:20;94932.44;;;7.69;57.96
26978;BME280;56314;48.088;11.642;2022-11-20T10:10:36;94921.81;;;8.30;55.69
26978;BME280;56314;48.088;11.642;2022-11-20T10:16:17;94924.03;;;8.93;54.33
26978;BME280;56314;48.088;11.642;2022-11-20T10:21:58;94922.84;;;9.53;51.40
26978;BME280;56314;48.088;11.642;2022-11-20T10:27:19;94905.28;;;10.40;50.17
26978;BME280;56314;48.088;11.642;2022-11-20T10:29:57;94914.19;;;11.20;46.59
26978;BME280;56314;48.088;11.642;2022-11-20T10:32:32;94911.84;;;11.17;47.10
26978;BME280;56314;48.088;11.642;2022-11-20T10:37:43;94901.56;;;11.65;46.71
26978;BME280;56314;48.088;11.642;2022-11-20T10:42:54;94907.06;;;11.52;45.50
26978;BME280;56314;48.088;11.642;2022-11-20T10:47:51;94909.84;;;11.00;47.82
26978;BME280;56314;48.088;11.642;2022-11-20T10:50:19;94908.94;;;10.80;48.40
26978;BME280;56314;48.088;11.642;2022-11-20T10:55:56;94895.66;;;11.12;45.58
26978;BME280;56314;48.088;11.642;2022-11-20T10:58:31;94892.22;;;11.21;45.64
26978;BME280;56314;48.088;11.642;2022-11-20T11:01:05;94898.31;;;10.81;45.98
26978;BME280;56314;48.088;11.642;2022-11-20T11:03:31;94909.44;;;10.21;47.21
26978;BME280;56314;48.088;11.642;2022-11-20T11:06:07;94910.31;;;9.68;48.95
26978;BME280;56314;48.088;11.642;2022-11-20T11:08:40;94909.94;;;9.29;50.14
26978;BME280;56314;48.088;11.642;2022-11-20T11:11:27;94902.81;;;9.08;51.18
26978;BME280;56314;48.088;11.642;2022-11-20T11:14:04;94898.06;;;9.02;52.33
26978;BME280;56314;48.088;11.642;2022-11-20T11:16:29;94904.38;;;8.99;52.23
26978;BME280;56314;48.088;11.642;2022-11-20T11:19:12;94900.84;;;8.77;53.20
26978;BME280;56314;48.088;11.642;2022-11-20T11:21:38;94901.16;;;8.73;54.28
26978;BME280;56314;48.088;11.642;2022-11-20T11:24:21;94907.19;;;8.39;54.86
26978;BME280;56314;48.088;11.642;2022-11-20T11:26:57;94902.19;;;8.25;55.42
26978;BME280;56314;48.088;11.642;2022-11-20T11:29:23;94901.69;;;8.20;56.04
26978;BME280;56314;48.088;11.642;2022-11-20T11:31:49;94900.28;;;8.27;56.11
26978;BME280;56314;48.088;11.642;2022-11-20T11:34:16;94890.06;;;8.35;55.94
26978;BME280;56314;48.088;11.642;2022-11-20T11:36:51;94898.50;;;8.39;56.20
26978;BME280;56314;48.088;11.642;2022-11-20T11:39:19;94895.28;;;8.35;56.62
26978;BME280;56314;48.088;11.642;2022-11-20T11:41:46;94891.97;;;8.44;56.34
26978;BME280;56314;48.088;11.642;2022-11-20T11:44:16;94887.59;;;8.45;55.72
26978;BME280;56314;48.088;11.642;2022-11-20T11:47:01;94889.59;;;8.41;55.68
26978;BME280;56314;48.088;11.642;2022-11-20T11:49:28;94883.91;;;8.47;54.69
26978;BME280;56314;48.088;11.642;2022-11-20T11:54:30;94887.25;;;8.84;nan
26978;BME280;56314;48.088;11.642;2022-11-20T11:57:00;94881.63;;;9.00;52.60
26978;BME280;56314;48.088;11.642;2022-11-20T11:59:49;94878.53;;;9.06;52.57
26978;BME280;56314;48.088;11.642;2022-11-20T12:02:38;94882.69;;;9.08;52.35
26978;BME280;56314;48.088;11.642;2022-11-20T12:05:28;94876.88;;;9.05;52.75
26978;BME280;56314;48.088;11.642;2022-11-20T12:08:31;94877.94;;;9.14;52.67
26978;BME280;56314;48.088;11.642;2022-11-20T12:11:04;94868.09;;;9.27;52.02
26978;BME280;56314;48.088;11.642;2022-11-20T12:16:00;94877.56;;;9.18;52.70
26978;BME280;56314;48.088;11.642;2022-11-20T12:18:27;94875.56;;;8.99;52.60
26978;BME280;56314;48.088;11.642;2022-11-20T12:21:07;94875.69;;;8.86;53.30
26978;BME280;56314;48.088;11.642;2022-11-20T12:27:02;94872.16;;;8.65;58.52
26978;BME280;56314;48.088;11.642;2022-11-20T12:37:39;94889.91;;;7.67;65.13
26978;BME280;56314;48.088;11.642;2022-11-20T12:40:41;94882.03;;;7.55;64.93
26978;BME280;56314;48.088;11.642;2022-11-20T12:43:28;94880.06;;;7.46;64.78
26978;BME280;56314;48.088;11.642;2022-11-20T12:46:34;94888.50;;;7.38;65.89
26978;BME280;56314;48.088;11.642;2022-11-20T13:07:44;94885.81;;;7.27;68.41
26978;BME280;56314;48.088;11.642;2022-11-20T13:10:41;94883.09;;;7.29;68.82
26978;BME280;56314;48.088;11.642;2022-11-20T13:13:31;94878.28;;;7.22;68.63
26978;BME280;56314;48.088;11.642;2022-11-20T13:16:05;94879.91;;;7.12;68.51
26978;BME280;56314;48.088;11.642;2022-11-20T13:18:38;94872.06;;;7.12;69.02
26978;BME280;56314;48.088;11.642;2022-11-20T13:21:18;94884.13;;;7.02;69.50
26978;BME280;56314;48.088;11.642;2022-11-20T13:23:43;94874.81;;;6.98;69.70
26978;BME280;56314;48.088;11.642;2022-11-20T13:26:20;94880.38;;;6.93;71.45
26978;BME280;56314;48.088;11.642;2022-11-20T13:28:58;94879.81;;;6.76;71.31
26978;BME280;56314;48.088;11.642;2022-11-20T13:31:32;94875.13;;;6.69;73.72
26978;BME280;56314;48.088;11.642;2022-11-20T13:33:58;94868.56;;;6.63;73.57
26978;BME280;56314;48.088;11.642;2022-11-20T13:36:27;94863.16;;;6.53;73.70
26978;BME280;56314;48.088;11.642;2022-11-20T13:38:54;94856.91;;;6.43;73.26
26978;BME280;56314;48.088;11.642;2022-11-20T13:41:31;94853.56;;;6.41;73.59
26978;BME280;56314;48.088;11.642;2022-11-20T13:44:06;94859.63;;;6.41;74.43
26978;BME280;56314;48.088;11.642;2022-11-20T13:46:37;94860.66;;;6.39;74.87
26978;BME280;56314;48.088;11.642;2022-11-20T13:49:08;94857.03;;;6.41;74.34
26978;BME280;56314;48.088;11.642;2022-11-20T13:51:47;94856.19;;;6.41;75.34
26978;BME280;56314;48.088;11.642;2022-11-20T13:54:22;94851.16;;;6.38;74.14
26978;BME280;56314;48.088;11.642;2022-11-20T14:02:18;94843.97;;;6.41;72.83
26978;BME280;56314;48.088;11.642;2022-11-20T14:04:48;94847.31;;;6.43;72.49
26978;BME280;56314;48.088;11.642;2022-11-20T14:07:17;94851.28;;;6.49;72.45
26978;BME280;56314;48.088;11.642;2022-11-20T14:09:55;94851.78;;;6.54;71.29
26978;BME280;56314;48.088;11.642;2022-11-20T14:12:26;94849.50;;;6.50;71.22
26978;BME280;56314;48.088;11.642;2022-11-20T14:14:53;94849.06;;;6.56;70.76
26978;BME280;56314;48.088;11.642;2022-11-20T14:17:22;94851.16;;;6.51;71.54
26978;BME280;56314;48.088;11.642;2022-11-20T14:19:50;94856.50;;;6.49;70.71
26978;BME280;56314;48.088;11.642;2022-11-20T14:22:23;94853.03;;;6.61;72.25
26978;BME280;56314;48.088;11.642;2022-11-20T14:27:34;94855.38;;;6.77;69.18
26978;BME280;56314;48.088;11.642;2022-11-20T14:30:01;94854.25;;;6.69;69.21
26978;BME280;56314;48.088;11.642;2022-11-20T14:32:29;94852.59;;;6.68;68.92
26978;BME280;56314;48.088;11.642;2022-11-20T14:35:01;94852.72;;;6.66;70.51
26978;BME280;56314;48.088;11.642;2022-11-20T14:37:30;94846.31;;;6.70;69.55
26978;BME280;56314;48.088;11.642;2022-11-20T14:39:58;94852.78;;;6.65;69.16
26978;BME280;56314;48.088;11.642;2022-11-20T14:42:27;94847.28;;;6.56;70.95
26978;BME280;56314;48.088;11.642;2022-11-20T14:44:57;94842.81;;;6.58;69.51
26978;BME280;56314;48.088;11.642;2022-11-20T14:47:25;94846.84;;;6.62;69.38
26978;BME280;56314;48.088;11.642;2022-11-20T14:49:52;94850.09;;;6.66;69.13
26978;BME280;56314;48.088;11.642;2022-11-20T14:52:23;94848.22;;;6.55;69.65
26978;BME280;56314;48.088;11.642;2022-11-20T14:54:51;94855.00;;;6.58;69.76
26978;BME280;56314;48.088;11.642;2022-11-20T14:57:26;94848.56;;;6.51;69.65
26978;BME280;56314;48.088;11.642;2022-11-20T15:00:02;94858.53;;;6.57;68.70
26978;BME280;56314;48.088;11.642;2022-11-20T15:02:29;94857.84;;;6.55;66.94
26978;BME280;56314;48.088;11.642;2022-11-20T15:05:00;94863.88;;;6.55;67.28
26978;BME280;56314;48.088;11.642;2022-11-20T15:07:44;94860.03;;;6.48;67.13
26978;BME280;56314;48.088;11.642;2022-11-20T15:10:20;94859.31;;;6.46;66.83
26978;BME280;56314;48.088;11.642;2022-11-20T15:15:17;94861.72;;;6.36;66.89
26978;BME280;56314;48.088;11.642;2022-11-20T15:17:44;94854.31;;;6.43;66.89
26978;BME280;56314;48.088;11.642;2022-11-20T15:20:14;94856.94;;;6.30;66.84
26978;BME280;56314;48.088;11.642;2022-11-20T15:22:40;94851.47;;;6.33;67.25
26978;BME280;56314;48.088;11.642;2022-11-20T15:25:19;94854.41;;;6.28;67.67
26978;BME280;56314;48.088;11.642;2022-11-20T15:27:45;94857.97;;;6.40;66.97
26978;BME280;56314;48.088;11.642;2022-11-20T15:30:17;94855.25;;;6.29;67.36
26978;BME280;56314;48.088;11.642;2022-11-20T15:32:43;94855.59;;;6.24;67.89
26978;BME280;56314;48.088;11.642;2022-11-20T15:35:09;94858.19;;;6.24;67.73
26978;BME280;56314;48.088;11.642;2022-11-20T15:37:36;94844.09;;;6.27;67.09
26978;BME280;56314;48.088;11.642;2022-11-20T15:40:02;94845.78;;;6.28;67.42
26978;BME280;56314;48.088;11.642;2022-11-20T15:42:27;94841.28;;;6.30;66.67
26978;BME280;56314;48.088;11.642;2022-11-20T15:44:53;94840.66;;;6.26;67.54
26978;BME280;56314;48.088;11.642;2022-11-20T15:47:20;94842.75;;;6.21;67.73
26978;BME280;56314;48.088;11.642;2022-11-20T15:49:50;94834.31;;;6.18;68.12
26978;BME280;56314;48.088;11.642;2022-11-20T15:52:15;94834.19;;;6.19;68.31
26978;BME280;56314;48.088;11.642;2022-11-20T15:54:41;94831.38;;;6.09;68.18
26978;BME280;56314;48.088;11.642;2022-11-20T15:57:06;94833.56;;;6.03;69.01
26978;BME280;56314;48.088;11.642;2022-11-20T15:59:32;94840.00;;;5.97;68.90
26978;BME280;56314;48.088;11.642;2022-11-20T16:01:57;94846.03;;;5.84;69.13
26978;BME280;56314;48.088;11.642;2022-11-20T16:04:22;94837.59;;;5.81;69.29
26978;BME280;56314;48.088;11.642;2022-11-20T16:06:48;94845.41;;;5.81;68.91
26978;BME280;56314;48.088;11.642;2022-11-20T16:09:13;94836.44;;;5.72;69.35
26978;BME280;56314;48.088;11.642;2022-11-20T16:11:38;94841.44;;;5.62;69.63
26978;BME280;56314;48.088;11.642;2022-11-20T16:14:04;94843.50;;;5.57;70.72
26978;BME280;56314;48.088;11.642;2022-11-20T16:16:49;94835.28;;;5.50;71.07
26978;BME280;56314;48.088;11.642;2022-11-20T16:19:15;94842.66;;;5.44;71.17
26978;BME280;56314;48.088;11.642;2022-11-20T16:21:41;94836.75;;;5.54;71.81
26978;BME280;56314;48.088;11.642;2022-11-20T16:24:09;94843.19;;;5.49;71.41
26978;BME280;56314;48.088;11.642;2022-11-20T16:26:36;94832.03;;;5.47;71.63
26978;BME280;56314;48.088;11.642;2022-11-20T16:29:03;94837.66;;;5.41;71.64
26978;BME280;56314;48.088;11.642;2022-11-20T16:31:30;94834.81;;;5.31;72.44
26978;BME280;56314;48.088;11.642;2022-11-20T16:33:58;94838.66;;;5.25;72.83
26978;BME280;56314;48.088;11.642;2022-11-20T16:36:26;94821.56;;;5.21;73.42
26978;BME280;56314;48.088;11.642;2022-11-20T16:38:57;94820.59;;;5.09;74.36
26978;BME280;56314;48.088;11.642;2022-11-20T16:41:24;94818.50;;;5.01;74.77
26978;BME280;56314;48.088;11.642;2022-11-20T16:43:52;94819.53;;;4.99;74.93
26978;BME280;56314;48.088;11.642;2022-11-20T16:46:21;94819.16;;;4.90;74.63
26978;BME280;56314;48.088;11.642;2022-11-20T16:51:19;94830.34;;;4.78;75.92
26978;BME280;56314;48.088;11.642;2022-11-20T16:53:44;94825.88;;;4.80;76.90
26978;BME280;56314;48.088;11.642;2022-11-20T16:56:15;94819.94;;;4.78;76.45
26978;BME280;56314;48.088;11.642;2022-11-20T16:58:42;94816.53;;;4.77;76.27
26978;BME280;56314;48.088;11.642;2022-11-20T17:01:08;94816.59;;;4.76;76.94
26978;BME280;56314;48.088;11.642;2022-11-20T17:03:42;94819.97;;;4.63;77.26
26978;BME280;56314;48.088;11.642;2022-11-20T17:06:16;94824.53;;;4.60;78.42
26978;BME280;56314;48.088;11.642;2022-11-20T17:08:43;94811.66;;;4.58;78.39
26978;BME280;56314;48.088;11.642;2022-11-20T17:11:12;94812.22;;;4.49;77.74
26978;BME280;56314;48.088;11.642;2022-11-20T17:13:38;94813.16;;;4.48;78.10
26978;BME280;56314;48.088;11.642;2022-11-20T17:16:09;94810.84;;;4.43;79.24
26978;BME280;56314;48.088;11.642;2022-11-20T17:18:35;94807.13;;;4.33;78.86
26978;BME280;56314;48.088;11.642;2022-11-20T17:21:03;94809.72;;;4.33;79.00
26978;BME280;56314;48.088;11.642;2022-11-20T17:23:34;94806.41;;;4.31;78.82
26978;BME280;56314;48.088;11.642;2022-11-20T17:26:10;94809.38;;;4.25;79.38
26978;BME280;56314;48.088;11.642;2022-11-20T17:28:38;94803.72;;;4.18;79.41
26978;BME280;56314;48.088;11.642;2022-11-20T17:31:09;94805.69;;;4.14;79.56
26978;BME280;56314;48.088;11.642;2022-11-20T17:33:36;94803.72;;;4.04;80.02
26978;BME280;56314;48.088;11.642;2022-11-20T17:36:04;94804.09;;;3.97;80.54
26978;BME280;56314;48.088;11.642;2022-11-20T17:38:29;94805.22;;;3.93;80.88
26978;BME280;56314;48.088;11.642;2022-11-20T17:41:09;94798.09;;;3.97;80.64
26978;BME280;56314;48.088;11.642;2022-11-20T17:43:35;94800.41;;;4.02;80.49
26978;BME280;56314;48.088;11.642;2022-11-20T17:48:32;94802.31;;;3.98;80.96
26978;BME280;56314;48.088;11.642;2022-11-20T17:51:02;94802.81;;;3.90;80.91
26978;BME280;56314;48.088;11.642;2022-11-20T17:53:31;94805.78;;;3.84;81.33
26978;BME280;56314;48.088;11.642;2022-11-20T17:55:57;94804.47;;;3.77;80.94
26978;BME280;56314;48.088;11.642;2022-11-20T17:58:41;94797.31;;;3.66;82.29
26978;BME280;56314;48.088;11.642;2022-11-20T18:01:08;94799.56;;;3.72;81.74
26978;BME280;56314;48.088;11.642;2022-11-20T18:03:33;94797.31;;;3.66;82.33
26978;BME280;56314;48.088;11.642;2022-11-20T18:06:10;94791.31;;;3.65;82.19
26978;BME280;56314;48.088;11.642;2022-11-20T18:08:36;94795.28;;;3.57;82.03
26978;BME280;56314;48.088;11.642;2022-11-20T18:13:45;94796.78;;;3.61;81.26
26978;BME280;56314;48.088;11.642;2022-11-20T18:16:32;94792.13;;;3.66;81.11
26978;BME280;56314;48.088;11.642;2022-11-20T18:18:58;94788.59;;;3.67;81.65
26978;BME280;56314;48.088;11.642;2022-11-20T18:21:25;94784.44;;;3.64;81.96
26978;BME280;56314;48.088;11.642;2022-11-20T18:23:51;94787.69;;;3.68;81.90
26978;BME280;56314;48.088;11.642;2022-11-20T18:26:17;94780.72;;;3.68;81.81
26978;BME280;56314;48.088;11.642;2022-11-20T18:28:43;94777.41;;;3.66;83.14
26978;BME280;56314;48.088;11.642;2022-11-20T18:31:09;94778.59;;;3.61;83.18
26978;BME280;56314;48.088;11.642;2022-11-20T18:33:35;94780.06;;;3.65;83.01
26978;BME280;56314;48.088;11.642;2022-11-20T18:36:19;94783.78;;;3.75;82.24
26978;BME280;56314;48.088;11.642;2022-11-20T18:38:46;94781.66;;;3.82;80.62
26978;BME280;56314;48.088;11.642;2022-11-20T18:41:13;94780.06;;;3.79;80.19
26978;BME280;56314;48.088;11.642;2022-11-20T18:43:58;94778.50;;;3.77;79.67
26978;BME280;56314;48.088;11.642;2022-11-20T18:46:42;94778.41;;;3.78;79.44
26978;BME280;56314;48.088;11.642;2022-11-20T18:49:08;94778.13;;;3.83;78.85
26978;BME280;56314;48.088;11.642;2022-11-20T18:51:34;94767.00;;;3.81;80.07
26978;BME280;56314;48.088;11.642;2022-11-20T18:54:00;94770.25;;;3.70;79.46
26978;BME280;56314;48.088;11.642;2022-11-20T18:56:26;94763.47;;;3.67;78.95
26978;BME280;56314;48.088;11.642;2022-11-20T18:58:51;94758.09;;;3.70;79.11
26978;BME280;56314;48.088;11.642;2022-11-20T19:01:16;94756.69;;;3.65;79.39
26978;BME280;56314;48.088;11.642;2022-11-20T19:03:41;94752.81;;;3.58;78.85
26978;BME280;56314;48.088;11.642;2022-11-20T19:06:12;94740.00;;;3.54;79.08
26978;BME280;56314;48.088;11.642;2022-11-20T19:08:38;94737.78;;;3.48;78.17
26978;BME280;56314;48.088;11.642;2022-11-20T19:11:05;94738.59;;;3.49;79.15
26978;BME280;56314;48.088;11.642;2022-11-20T19:13:32;94741.66;;;3.41;78.83
26978;BME280;56314;48.088;11.642;2022-11-20T19:16:04;94739.78;;;3.29;79.72
26978;BME280;56314;48.088;11.642;2022-11-20T19:18:29;94741.72;;;3.25;79.96
26978;BME280;56314;48.088;11.642;2022-11-20T19:20:55;94744.22;;;3.27;79.94
26978;BME280;56314;48.088;11.642;2022-11-20T19:23:20;94742.19;;;3.17;79.78
26978;BME280;56314;48.088;11.642;2022-11-20T19:25:46;94732.06;;;3.13;80.21
26978;BME280;56314;48.088;11.642;2022-11-20T19:28:12;94732.50;;;3.05;80.08
26978;BME280;56314;48.088;11.642;2022-11-20T19:30:37;94722.06;;;3.06;80.07
26978;BME280;56314;48.088;11.642;2022-11-20T19:33:05;94723.91;;;3.04;80.39
26978;BME280;56314;48.088;11.642;2022-11-20T19:35:30;94723.44;;;2.98;81.19
26978;BME280;56314;48.088;11.642;2022-11-20T19:37:56;94731.13;;;2.99;81.36
26978;BME280;56314;48.088;11.642;2022-11-20T19:40:21;94725.00;;;3.00;82.04
26978;BME280;56314;48.088;11.642;2022-11-20T19:42:46;94719.72;;;3.02;81.04
26978;BME280;56314;48.088;11.642;2022-11-20T19:45:12;94722.31;;;3.02;81.09
26978;BME280;56314;48.088;11.642;2022-11-20T19:47:37;94724.38;;;3.11;80.93
26978;BME280;56314;48.088;11.642;2022-11-20T19:50:03;94715.69;;;3.12;81.45
26978;BME280;56314;48.088;11.642;2022-11-20T19:52:28;94721.50;;;3.01;81.61
26978;BME280;56314;48.088;11.642;2022-11-20T19:54:54;94715.84;;;3.09;81.82
26978;BME280;56314;48.088;11.642;2022-11-20T19:57:19;94711.59;;;3.08;81.02
26978;BME280;56314;48.088;11.642;2022-11-20T19:59:44;94714.19;;;3.08;81.39
26978;BME280;56314;48.088;11.642;2022-11-20T20:02:10;94707.16;;;3.10;81.35
26978;BME280;56314;48.088;11.642;2022-11-20T20:04:35;94709.09;;;3.06;82.22
26978;BME280;56314;48.088;11.642;2022-11-20T20:07:01;94694.19;;;3.10;81.71
26978;BME280;56314;48.088;11.642;2022-11-20T20:09:28;94695.94;;;3.10;81.84
26978;BME280;56314;48.088;11.642;2022-11-20T20:11:54;94699.81;;;3.02;81.40
26978;BME280;56314;48.088;11.642;2022-11-20T20:14:19;94698.72;;;3.06;81.47
26978;BME280;56314;48.088;11.642;2022-11-20T20:16:45;94689.97;;;2.93;82.46
26978;BME280;56314;48.088;11.642;2022-11-20T20:19:14;94687.50;;;3.06;81.45
26978;BME280;56314;48.088;11.642;2022-11-20T20:21:40;94694.81;;;2.99;82.10
26978;BME280;56314;48.088;11.642;2022-11-20T20:24:06;94694.53;;;3.04;81.59
26978;BME280;56314;48.088;11.642;2022-11-20T20:26:32;94693.72;;;3.03;82.16
26978;BME280;56314;48.088;11.642;2022-11-20T20:28:59;94690.56;;;3.13;81.49
26978;BME280;56314;48.088;11.642;2022-11-20T20:31:27;94698.44;;;3.11;81.36
26978;BME280;56314;48.088;11.642;2022-11-20T20:33:53;94697.78;;;3.07;82.09
26978;BME280;56314;48.088;11.642;2022-11-20T20:36:20;94691.66;;;3.08;81.80
26978;BME280;56314;48.088;11.642;2022-11-20T20:38:46;94692.41;;;3.11;81.50
26978;BME280;56314;48.088;11.642;2022-11-20T20:41:13;94696.03;;;3.08;81.55
26978;BME280;56314;48.088;11.642;2022-11-20T20:43:38;94682.94;;;3.10;81.87
26978;BME280;56314;48.088;11.642;2022-11-20T20:46:23;94679.63;;;3.07;81.90
26978;BME280;56314;48.088;11.642;2022-11-20T20:48:48;94677.69;;;3.11;83.00
26978;BME280;56314;48.088;11.642;2022-11-20T20:51:13;94673.78;;;3.18;81.26
26978;BME280;56314;48.088;11.642;2022-11-20T20:53:39;94668.78;;;3.15;81.26
26978;BME280;56314;48.088;11.642;2022-11-20T20:56:04;94670.84;;;3.10;80.89
26978;BME280;56314;48.088;11.642;2022-11-20T20:58:30;94665.38;;;3.15;81.38
26978;BME280;56314;48.088;11.642;2022-11-20T21:01:03;94665.44;;;3.13;81.35
26978;BME280;56314;48.088;11.642;2022-11-20T21:03:31;94667.22;;;3.13;81.17
26978;BME280;56314;48.088;11.642;2022-11-20T21:05:56;94667.13;;;3.14;81.37
26978;BME280;56314;48.088;11.642;2022-11-20T21:08:23;94658.13;;;3.20;81.54
26978;BME280;56314;48.088;11.642;2022-11-20T21:10:53;94658.88;;;3.22;81.33
26978;BME280;56314;48.088;11.642;2022-11-20T21:13:20;94649.13;;;3.26;81.06
26978;BME280;56314;48.088;11.642;2022-11-20T21:15:47;94653.22;;;3.30;80.84
26978;BME280;56314;48.088;11.642;2022-11-20T21:18:14;94649.81;;;3.29;81.70
26978;BME280;56314;48.088;11.642;2022-11-20T21:20:40;94649.53;;;3.34;80.28
26978;BME280;56314;48.088;11.642;2022-11-20T21:23:24;94645.81;;;3.38;80.93
26978;BME280;56314;48.088;11.642;2022-11-20T21:25:50;94650.75;;;3.43;81.00
26978;BME280;56314;48.088;11.642;2022-11-20T21:28:15;94633.22;;;3.46;80.30
26978;BME280;56314;48.088;11.642;2022-11-20T21:30:40;94633.00;;;3.64;78.89
26978;BME280;56314;48.088;11.642;2022-11-20T21:33:06;94630.50;;;3.62;78.88
26978;BME280;56314;48.088;11.642;2022-11-20T21:35:34;94637.72;;;3.72;78.83
26978;BME280;56314;48.088;11.642;2022-11-20T21:38:00;94635.22;;;3.70;79.18
26978;BME280;56314;48.088;11.642;2022-11-20T21:40:25;94647.00;;;3.76;78.43
26978;BME280;56314;48.088;11.642;2022-11-20T21:42:52;94647.16;;;3.87;77.06
26978;BME280;56314;48.088;11.642;2022-11-20T21:45:18;94660.75;;;4.05;75.03
26978;BME280;56314;48.088;11.642;2022-11-20T21:47:43;94663.44;;;4.31;72.74
26978;BME280;56314;48.088;11.642;2022-11-20T21:50:09;94670.66;;;4.40;71.62
26978;BME280;56314;48.088;11.642;2022-11-20T21:52:34;94678.41;;;4.55;70.71
26978;BME280;56314;48.088;11.642;2022-11-20T21:54:59;94674.78;;;4.70;71.01
26978;BME280;56314;48.088;11.642;2022-11-20T21:57:25;94698.44;;;4.80;71.58
26978;BME280;56314;48.088;11.642;2022-11-20T21:59:50;94707.28;;;4.77;73.80
26978;BME280;56314;48.088;11.642;2022-11-20T22:02:15;94698.50;;;4.66;75.36
26978;BME280;56314;48.088;11.642;2022-11-20T22:04:41;94701.06;;;4.53;76.78
26978;BME280;56314;48.088;11.642;2022-11-20T22:07:06;94704.41;;;4.55;77.74
26978;BME280;56314;48.088;11.642;2022-11-20T22:09:32;94702.81;;;4.52;79.42
26978;BME280;56314;48.088;11.642;2022-11-20T22:11:57;94692.22;;;4.55;80.58
26978;BME280;56314;48.088;11.642;2022-11-20T22:14:22;94692.09;;;4.44;81.38
26978;BME280;56314;48.088;11.642;2022-11-20T22:16:49;94682.28;;;4.35;81.79
26978;BME280;56314;48.088;11.642;2022-11-20T22:19:16;94694.16;;;4.39;81.96
26978;BME280;56314;48.088;11.642;2022-11-20T22:21:42;94687.03;;;4.28;82.78
26978;BME280;56314;48.088;11.642;2022-11-20T22:24:10;94687.31;;;4.23;83.55
26978;BME280;56314;48.088;11.642;2022-11-20T22:26:36;94678.50;;;4.26;84.69
26978;BME280;56314;48.088;11.642;2022-11-20T22:29:02;94677.75;;;4.24;84.36
26978;BME280;56314;48.088;11.642;2022-11-20T22:31:28;94678.69;;;4.23;83.90
26978;BME280;56314;48.088;11.642;2022-11-20T22:33:55;94683.25;;;4.19;85.02
26978;BME280;56314;48.088;11.642;2022-11-20T22:36:25;94680.75;;;4.18;84.91
26978;BME280;56314;48.088;11.642;2022-11-20T22:38:52;94681.88;;;4.13;86.67
26978;BME280;56314;48.088;11.642;2022-11-20T22:41:20;94687.06;;;4.13;86.73
26978;BME280;56314;48.088;11.642;2022-11-20T22:43:46;94684.38;;;4.15;86.58
26978;BME280;56314;48.088;11.642;2022-11-20T22:46:13;94684.56;;;4.12;87.03
26978;BME280;56314;48.088;11.642;2022-11-20T22:48:47;94688.94;;;4.11;87.17
26978;BME280;56314;48.088;11.642;2022-11-20T22:51:14;94683.28;;;4.05;88.44
26978;BME280;56314;48.088;11.642;2022-11-20T22:53:41;94691.94;;;4.05;89.53
26978;BME280;56314;48.088;11.642;2022-11-20T22:56:09;94698.97;;;4.03;89.59
26978;BME280;56314;48.088;11.642;2022-11-20T22:58:36;94696.84;;;3.95;89.80
26978;BME280;56314;48.088;11.642;2022-11-20T23:01:22;94697.13;;;3.91;90.52
26978;BME280;56314;48.088;11.642;2022-11-20T23:03:49;94696.03;;;3.80;91.13
26978;BME280;56314;48.088;11.642;2022-11-20T23:06:16;94692.88;;;3.75;91.53
26978;BME280;56314;48.088;11.642;2022-11-20T23:08:42;94689.47;;;3.75;91.95
26978;BME280;56314;48.088;11.642;2022-11-20T23:11:11;94693.72;;;3.76;92.58
26978;BME280;56314;48.088;11.642;2022-11-20T23:13:37;94694.38;;;3.79;92.52
26978;BME280;56314;48.088;11.642;2022-11-20T23:16:09;94695.31;;;3.78;93.83
26978;BME280;56314;48.088;11.642;2022-11-20T23:18:35;94706.59;;;3.92;94.06
26978;BME280;56314;48.088;11.642;2022-11-20T23:21:14;94695.34;;;3.91;93.98
26978;BME280;56314;48.088;11.642;2022-11-20T23:23:41;94685.81;;;3.92;94.15
26978;BME280;56314;48.088;11.642;2022-11-20T23:26:11;94697.44;;;3.86;93.83
26978;BME280;56314;48.088;11.642;2022-11-20T23:28:38;94699.91;;;3.88;93.64
26978;BME280;56314;48.088;11.642;2022-11-20T23:31:04;94694.38;;;3.79;92.67
26978;BME280;56314;48.088;11.642;2022-11-20T23:33:30;94697.34;;;3.73;93.22
26978;BME280;56314;48.088;11.642;2022-11-20T23:35:56;94697.63;;;3.68;94.24
26978;BME280;56314;48.088;11.642;2022-11-20T23:38:21;94691.97;;;3.76;94.27